Time;durP1;ratioP1;P1;durP2;ratioP2;P2;SDS_P1;SDS_P2;PMS_P1;PMS_P2;Temp;Humidity;BMP_temperature;BMP_pressure;BME280_temperature;BME280_humidity;BME280_pressure;Samples;Min_cycle;Max_cycle;Signal;HPM_P1;HPM_P2
2022/03/05 00:01:30;;;;;;;14.57;9.35;;;;;;;;;;5027599;28;20779;-62
2022/03/05 00:03:56;;;;;;;14.55;9.50;;;;;;;;;;5027620;28;20042;-62
2022/03/05 00:06:23;;;;;;;12.02;7.72;;;;;;;;;;5028760;28;20042;-61
2022/03/05 00:08:50;;;;;;;15.85;10.65;;;;;;;;;;5026796;28;20055;-61
2022/03/05 00:11:16;;;;;;;10.88;8.00;;;;;;;;;;5010037;28;20052;-62
2022/03/05 00:13:42;;;;;;;15.02;8.60;;;;;;;;;;5026834;28;20107;-61
2022/03/05 00:16:09;;;;;;;12.95;7.68;;;;;;;;;;5027266;28;20041;-62
2022/03/05 00:18:35;;;;;;;12.50;8.88;;;;;;;;;;5028031;28;20113;-61
2022/03/05 00:21:01;;;;;;;13.20;9.20;;;;;;;;;;5034390;28;20065;-62
2022/03/05 00:23:27;;;;;;;14.80;9.50;;;;;;;;;;5026892;28;20410;-61
2022/03/05 00:25:53;;;;;;;16.30;9.25;;;;;;;;;;5025502;28;20046;-61
2022/03/05 00:28:19;;;;;;;15.07;7.60;;;;;;;;;;5026470;28;20041;-61
2022/03/05 00:30:46;;;;;;;14.13;8.77;;;;;;;;;;5027333;28;20063;-61
2022/03/05 00:33:12;;;;;;;16.95;10.70;;;;;;;;;;5033565;28;20046;-61
2022/03/05 00:35:38;;;;;;;15.30;9.52;;;;;;;;;;5026317;28;20427;-61
2022/03/05 00:38:04;;;;;;;11.98;8.45;;;;;;;;;;5033217;28;20200;-61
2022/03/05 00:40:30;;;;;;;11.43;7.05;;;;;;;;;;5026453;28;20041;-60
2022/03/05 00:42:56;;;;;;;9.93;6.40;;;;;;;;;;5026716;28;20062;-60
2022/03/05 00:45:22;;;;;;;10.60;7.43;;;;;;;;;;5026406;28;20053;-61
2022/03/05 00:47:48;;;;;;;11.23;7.63;;;;;;;;;;5027107;28;20103;-61
2022/03/05 00:50:14;;;;;;;11.05;7.53;;;;;;;;;;5027099;28;20037;-60
2022/03/05 00:52:40;;;;;;;11.60;8.57;;;;;;;;;;5028436;28;20037;-60
2022/03/05 00:55:07;;;;;;;11.50;8.48;;;;;;;;;;5026157;28;20112;-61
2022/03/05 00:57:33;;;;;;;13.18;8.40;;;;;;;;;;5026415;28;20042;-61
2022/03/05 01:00:00;;;;;;;10.98;7.55;;;;;;;;;;5010630;28;20037;-60
2022/03/05 01:02:26;;;;;;;9.70;6.85;;;;;;;;;;5024958;28;20052;-61
2022/03/05 01:04:52;;;;;;;10.23;7.60;;;;;;;;;;5027001;28;20144;-62
2022/03/05 01:07:18;;;;;;;12.05;8.50;;;;;;;;;;5027609;28;20068;-61
2022/03/05 01:09:44;;;;;;;11.65;8.23;;;;;;;;;;5027024;28;20049;-60
2022/03/05 01:12:10;;;;;;;12.35;8.05;;;;;;;;;;5024217;28;20042;-61
2022/03/05 01:14:37;;;;;;;9.50;7.30;;;;;;;;;;5025466;28;20107;-61
2022/03/05 01:17:03;;;;;;;11.60;7.20;;;;;;;;;;5025606;28;20041;-62
2022/03/05 01:19:29;;;;;;;12.00;8.93;;;;;;;;;;5025793;28;20038;-60
2022/03/05 01:21:55;;;;;;;13.63;7.78;;;;;;;;;;5025724;28;20186;-60
2022/03/05 01:24:21;;;;;;;15.75;9.52;;;;;;;;;;5034029;28;20046;-60
2022/03/05 01:26:47;;;;;;;13.75;9.10;;;;;;;;;;5025972;28;20041;-60
2022/03/05 01:29:13;;;;;;;11.25;6.65;;;;;;;;;;5024428;28;20087;-61
2022/03/05 01:31:40;;;;;;;12.18;7.38;;;;;;;;;;5025188;28;20076;-60
2022/03/05 01:34:06;;;;;;;12.23;7.68;;;;;;;;;;5025583;28;20408;-61
2022/03/05 01:36:32;;;;;;;15.25;9.98;;;;;;;;;;5024992;28;20084;-61
2022/03/05 01:38:58;;;;;;;11.73;7.75;;;;;;;;;;5025291;28;20072;-60
2022/03/05 01:41:25;;;;;;;8.88;6.43;;;;;;;;;;5008952;28;20056;-60
2022/03/05 01:43:52;;;;;;;12.02;7.38;;;;;;;;;;5026625;28;20415;-61
2022/03/05 01:46:31;;;;;;;10.13;7.13;;;;;;;;;;5026163;28;20048;-60
2022/03/05 01:48:57;;;;;;;10.75;7.03;;;;;;;;;;5025378;28;20419;-60
2022/03/05 01:51:23;;;;;;;10.38;6.90;;;;;;;;;;5026808;28;20128;-60
2022/03/05 01:53:50;;;;;;;8.77;5.57;;;;;;;;;;5031597;28;20592;-61
2022/03/05 01:56:16;;;;;;;7.63;5.05;;;;;;;;;;5027195;28;20044;-60
2022/03/05 01:58:43;;;;;;;12.25;7.82;;;;;;;;;;5025404;28;20044;-60
2022/03/05 02:01:09;;;;;;;11.75;7.00;;;;;;;;;;5041302;28;20121;-61
2022/03/05 02:03:37;;;;;;;11.43;7.43;;;;;;;;;;5025135;28;20065;-61
2022/03/05 02:06:03;;;;;;;10.75;6.90;;;;;;;;;;5048276;28;20606;-61
2022/03/05 02:08:30;;;;;;;9.40;6.75;;;;;;;;;;5024683;28;20077;-62
2022/03/05 02:10:56;;;;;;;11.07;5.65;;;;;;;;;;5026192;28;20045;-62
2022/03/05 02:13:22;;;;;;;9.25;6.80;;;;;;;;;;5024815;28;20041;-61
2022/03/05 02:15:53;;;;;;;10.40;6.95;;;;;;;;;;5026351;28;20045;-60
2022/03/05 02:18:19;;;;;;;9.95;7.45;;;;;;;;;;5026311;28;20124;-60
2022/03/05 02:20:45;;;;;;;8.75;4.68;;;;;;;;;;5025098;28;20484;-61
2022/03/05 02:23:11;;;;;;;9.00;6.07;;;;;;;;;;5026375;28;20038;-61
2022/03/05 02:25:38;;;;;;;8.55;6.13;;;;;;;;;;5024974;28;20045;-60
2022/03/05 02:28:04;;;;;;;9.02;5.97;;;;;;;;;;5026234;28;20458;-60
2022/03/05 02:30:30;;;;;;;9.10;6.10;;;;;;;;;;5023733;28;20459;-59
2022/03/05 02:32:56;;;;;;;8.05;6.60;;;;;;;;;;5027094;28;20072;-59
2022/03/05 02:35:22;;;;;;;8.40;5.95;;;;;;;;;;5025839;28;20041;-59
2022/03/05 02:37:48;;;;;;;8.48;6.50;;;;;;;;;;5026703;28;20482;-60
2022/03/05 02:40:14;;;;;;;9.75;6.38;;;;;;;;;;5031327;28;20046;-59
2022/03/05 02:42:40;;;;;;;9.48;5.47;;;;;;;;;;5026703;28;20050;-59
2022/03/05 02:45:06;;;;;;;10.32;6.65;;;;;;;;;;5025069;28;20045;-60
2022/03/05 02:47:33;;;;;;;9.80;6.32;;;;;;;;;;5027093;28;20041;-59
2022/03/05 02:49:59;;;;;;;9.02;6.28;;;;;;;;;;5026451;28;20472;-60
2022/03/05 02:52:25;;;;;;;7.95;5.05;;;;;;;;;;5025293;28;20388;-60
2022/03/05 02:54:51;;;;;;;8.00;5.95;;;;;;;;;;5027158;28;20090;-61
2022/03/05 02:57:17;;;;;;;10.05;6.30;;;;;;;;;;5025572;28;20044;-60
2022/03/05 02:59:43;;;;;;;7.72;5.20;;;;;;;;;;5024872;28;20033;-60
2022/03/05 03:02:09;;;;;;;8.20;5.22;;;;;;;;;;5041973;28;20045;-60
2022/03/05 03:04:35;;;;;;;7.10;4.93;;;;;;;;;;5027174;28;20492;-59
2022/03/05 03:07:01;;;;;;;9.52;5.35;;;;;;;;;;5025639;28;20393;-61
2022/03/05 03:09:28;;;;;;;7.95;5.25;;;;;;;;;;5025141;28;20487;-59
2022/03/05 03:11:54;;;;;;;6.18;3.35;;;;;;;;;;5026442;28;20116;-59
2022/03/05 03:14:20;;;;;;;11.88;5.78;;;;;;;;;;5026450;28;20064;-60
2022/03/05 03:16:47;;;;;;;9.65;6.50;;;;;;;;;;5024982;28;20045;-60
2022/03/05 03:19:13;;;;;;;10.43;6.15;;;;;;;;;;5008427;28;20056;-59
2022/03/05 03:21:39;;;;;;;7.35;6.00;;;;;;;;;;5041212;28;20065;-59
2022/03/05 03:24:05;;;;;;;10.07;6.07;;;;;;;;;;5009399;28;20033;-59
2022/03/05 03:26:31;;;;;;;9.00;6.07;;;;;;;;;;5029468;28;20380;-60
2022/03/05 03:28:57;;;;;;;10.95;6.18;;;;;;;;;;5028426;28;20116;-58
2022/03/05 03:31:23;;;;;;;8.15;5.78;;;;;;;;;;5028745;28;20034;-60
2022/03/05 03:33:49;;;;;;;10.68;6.68;;;;;;;;;;5026779;28;20049;-60
2022/03/05 03:36:16;;;;;;;7.13;5.60;;;;;;;;;;5012548;28;20045;-58
2022/03/05 03:38:42;;;;;;;7.97;5.38;;;;;;;;;;5030631;28;20108;-59
2022/03/05 03:41:08;;;;;;;9.88;6.75;;;;;;;;;;5029284;28;20064;-59
2022/03/05 03:43:34;;;;;;;9.25;5.97;;;;;;;;;;5028470;28;20411;-59
2022/03/05 03:46:00;;;;;;;7.75;6.05;;;;;;;;;;5028021;28;20087;-61
2022/03/05 03:48:26;;;;;;;11.02;6.82;;;;;;;;;;5029647;28;20042;-60
2022/03/05 03:50:52;;;;;;;11.43;6.35;;;;;;;;;;5027477;28;20562;-62
2022/03/05 03:53:19;;;;;;;6.65;4.43;;;;;;;;;;5049435;28;20040;-61
2022/03/05 03:55:45;;;;;;;7.07;5.40;;;;;;;;;;5010444;28;20041;-60
2022/03/05 03:58:11;;;;;;;8.90;6.38;;;;;;;;;;5026184;28;20046;-61
2022/03/05 04:00:38;;;;;;;9.48;6.30;;;;;;;;;;5027356;28;20056;-63
2022/03/05 04:03:04;;;;;;;9.65;6.75;;;;;;;;;;5027226;28;20056;-61
2022/03/05 04:05:30;;;;;;;9.43;5.18;;;;;;;;;;5028719;28;20056;-60
2022/03/05 04:10:41;;;;;;;7.68;5.30;;;;;;;;;;5029441;28;21380;-59
2022/03/05 04:13:08;;;;;;;9.32;5.60;;;;;;;;;;5028849;28;20041;-62
2022/03/05 04:15:34;;;;;;;10.50;5.55;;;;;;;;;;5026343;28;20483;-61
2022/03/05 04:18:00;;;;;;;7.30;4.93;;;;;;;;;;5027746;28;20049;-60
2022/03/05 04:20:26;;;;;;;6.88;4.55;;;;;;;;;;5027127;28;20037;-60
2022/03/05 04:22:52;;;;;;;5.45;2.58;;;;;;;;;;5026888;28;20092;-60
2022/03/05 04:25:18;;;;;;;7.90;4.55;;;;;;;;;;5028281;28;20033;-60
2022/03/05 04:27:44;;;;;;;10.88;5.45;;;;;;;;;;5026731;28;20038;-61
2022/03/05 04:30:11;;;;;;;9.85;5.25;;;;;;;;;;5027967;28;20396;-60
2022/03/05 04:32:38;;;;;;;8.38;5.65;;;;;;;;;;5010044;28;20064;-62
2022/03/05 04:35:05;;;;;;;9.27;6.03;;;;;;;;;;5025051;28;20033;-60
2022/03/05 04:37:31;;;;;;;4.65;3.38;;;;;;;;;;5027026;28;20542;-60
2022/03/05 04:39:57;;;;;;;9.05;5.90;;;;;;;;;;5028421;28;20038;-60
2022/03/05 04:42:23;;;;;;;7.82;5.32;;;;;;;;;;5026313;28;20073;-61
2022/03/05 04:44:50;;;;;;;9.30;5.68;;;;;;;;;;5028198;28;20041;-61
2022/03/05 04:47:16;;;;;;;11.30;6.30;;;;;;;;;;5027838;28;20045;-60
2022/03/05 04:49:42;;;;;;;9.05;6.57;;;;;;;;;;5010457;28;20456;-60
2022/03/05 04:52:08;;;;;;;10.50;7.22;;;;;;;;;;5026034;28;20124;-59
2022/03/05 04:54:34;;;;;;;10.05;7.07;;;;;;;;;;5027876;28;20045;-61
2022/03/05 04:57:00;;;;;;;9.82;5.45;;;;;;;;;;5010062;28;20033;-59
2022/03/05 04:59:26;;;;;;;8.90;6.18;;;;;;;;;;5026903;28;20510;-60
2022/03/05 05:01:53;;;;;;;9.20;7.13;;;;;;;;;;5025797;28;20053;-61
2022/03/05 05:04:19;;;;;;;10.00;6.65;;;;;;;;;;5026168;28;20484;-60
2022/03/05 05:06:45;;;;;;;6.10;4.28;;;;;;;;;;5042586;28;20060;-60
2022/03/05 05:09:11;;;;;;;10.05;6.80;;;;;;;;;;5027315;28;20411;-61
2022/03/05 05:11:37;;;;;;;12.98;6.22;;;;;;;;;;5026271;28;20129;-61
2022/03/05 05:14:03;;;;;;;7.45;4.90;;;;;;;;;;5026024;28;20529;-61
2022/03/05 05:16:29;;;;;;;9.27;7.00;;;;;;;;;;5031565;28;20546;-61
2022/03/05 05:21:40;;;;;;;10.43;6.75;;;;;;;;;;5027148;28;20045;-60
2022/03/05 05:24:06;;;;;;;9.43;6.45;;;;;;;;;;5027398;28;20046;-61
2022/03/05 05:26:33;;;;;;;7.78;4.90;;;;;;;;;;5027387;28;20068;-61
2022/03/05 05:28:59;;;;;;;10.30;5.57;;;;;;;;;;5025592;28;20091;-61
2022/03/05 05:31:25;;;;;;;8.23;5.93;;;;;;;;;;5025257;28;20042;-60
2022/03/05 05:33:51;;;;;;;8.77;6.90;;;;;;;;;;5025433;28;20052;-61
2022/03/05 05:36:18;;;;;;;9.98;6.20;;;;;;;;;;5050816;28;20045;-60
2022/03/05 05:38:44;;;;;;;10.98;6.72;;;;;;;;;;5025841;28;20508;-60
2022/03/05 05:41:12;;;;;;;12.50;6.90;;;;;;;;;;5026685;28;20041;-60
2022/03/05 05:43:38;;;;;;;10.20;6.38;;;;;;;;;;5025784;28;20515;-61
2022/03/05 05:46:04;;;;;;;8.70;5.82;;;;;;;;;;5025950;28;20095;-61
2022/03/05 05:48:30;;;;;;;7.82;6.15;;;;;;;;;;5025575;28;20069;-60
2022/03/05 05:50:56;;;;;;;9.43;6.45;;;;;;;;;;5027080;28;20057;-61
2022/03/05 05:53:25;;;;;;;8.55;6.80;;;;;;;;;;5008748;28;20053;-62
2022/03/05 05:55:52;;;;;;;9.30;6.60;;;;;;;;;;5007308;28;20176;-61
2022/03/05 05:58:18;;;;;;;11.35;7.13;;;;;;;;;;5026131;28;20044;-59
2022/03/05 06:00:44;;;;;;;12.40;7.53;;;;;;;;;;5009482;28;20518;-59
2022/03/05 06:03:10;;;;;;;8.93;6.38;;;;;;;;;;5026789;28;20514;-59
2022/03/05 06:05:36;;;;;;;10.90;6.30;;;;;;;;;;5009607;28;20507;-59
2022/03/05 06:08:02;;;;;;;10.65;6.97;;;;;;;;;;5026775;28;20562;-59
2022/03/05 06:10:28;;;;;;;12.70;7.78;;;;;;;;;;5042750;28;20045;-60
2022/03/05 06:12:54;;;;;;;13.05;7.80;;;;;;;;;;5027245;28;20060;-60
2022/03/05 06:15:20;;;;;;;11.07;7.95;;;;;;;;;;5027270;28;20049;-60
2022/03/05 06:17:46;;;;;;;11.55;8.00;;;;;;;;;;5026082;28;20074;-59
2022/03/05 06:20:12;;;;;;;11.93;8.30;;;;;;;;;;5025371;28;20072;-59
2022/03/05 06:22:38;;;;;;;12.48;7.85;;;;;;;;;;5026213;28;20037;-61
2022/03/05 06:25:05;;;;;;;11.82;7.93;;;;;;;;;;5026269;28;20426;-60
2022/03/05 06:27:31;;;;;;;11.30;8.38;;;;;;;;;;5027424;28;20048;-60
2022/03/05 06:29:57;;;;;;;14.02;8.43;;;;;;;;;;5009425;28;20149;-60
2022/03/05 06:32:24;;;;;;;14.38;8.48;;;;;;;;;;5027249;28;20045;-59
2022/03/05 06:34:51;;;;;;;11.98;8.98;;;;;;;;;;5025889;28;20053;-60
2022/03/05 06:37:17;;;;;;;13.80;7.75;;;;;;;;;;5025163;28;20034;-59
2022/03/05 06:39:43;;;;;;;15.05;8.50;;;;;;;;;;5026723;28;20045;-60
2022/03/05 06:42:09;;;;;;;11.85;7.45;;;;;;;;;;5026294;28;20085;-60
2022/03/05 06:44:35;;;;;;;15.25;8.32;;;;;;;;;;4991803;28;20364;-62
2022/03/05 06:47:02;;;;;;;11.93;8.68;;;;;;;;;;5008725;28;20049;-61
2022/03/05 06:49:28;;;;;;;11.10;7.32;;;;;;;;;;5024910;28;20125;-61
2022/03/05 06:51:54;;;;;;;12.77;8.30;;;;;;;;;;5042167;28;20043;-60
2022/03/05 06:54:20;;;;;;;11.45;7.95;;;;;;;;;;5025680;28;20103;-61
2022/03/05 06:56:47;;;;;;;14.55;8.45;;;;;;;;;;5022789;28;20049;-62
2022/03/05 06:59:13;;;;;;;14.60;9.13;;;;;;;;;;5026010;28;20044;-61
2022/03/05 07:01:40;;;;;;;11.98;7.95;;;;;;;;;;5030195;28;20060;-62
2022/03/05 07:04:07;;;;;;;11.43;7.70;;;;;;;;;;5028946;28;20444;-61
2022/03/05 07:06:33;;;;;;;13.98;8.43;;;;;;;;;;5045621;28;20145;-61
2022/03/05 07:08:59;;;;;;;12.38;7.10;;;;;;;;;;5012123;28;20042;-60
2022/03/05 07:11:25;;;;;;;12.10;6.78;;;;;;;;;;5028247;28;20045;-60
2022/03/05 07:13:51;;;;;;;10.30;7.20;;;;;;;;;;5010967;28;20041;-60
2022/03/05 07:16:17;;;;;;;9.60;6.97;;;;;;;;;;5028695;28;20045;-61
2022/03/05 07:18:43;;;;;;;9.07;7.00;;;;;;;;;;5031021;28;20038;-60
2022/03/05 07:21:09;;;;;;;12.18;6.82;;;;;;;;;;5030769;28;20187;-60
2022/03/05 07:23:35;;;;;;;10.32;6.80;;;;;;;;;;5028535;28;20038;-60
2022/03/05 07:26:01;;;;;;;14.10;7.10;;;;;;;;;;5030407;28;20044;-61
2022/03/05 07:28:27;;;;;;;12.38;6.97;;;;;;;;;;5029549;28;20395;-61
2022/03/05 07:30:55;;;;;;;11.63;6.93;;;;;;;;;;5029800;28;20059;-61
2022/03/05 07:33:21;;;;;;;9.85;6.22;;;;;;;;;;5028096;28;20046;-61
2022/03/05 07:35:48;;;;;;;9.00;6.13;;;;;;;;;;5045423;28;20037;-62
2022/03/05 07:38:14;;;;;;;10.45;7.03;;;;;;;;;;5012997;28;20041;-61
2022/03/05 07:40:40;;;;;;;12.60;7.88;;;;;;;;;;5030550;28;20087;-61
2022/03/05 07:43:06;;;;;;;10.88;6.22;;;;;;;;;;5028424;28;20065;-63
2022/03/05 07:45:32;;;;;;;12.45;7.43;;;;;;;;;;5029528;28;20179;-60
2022/03/05 07:47:58;;;;;;;10.10;6.53;;;;;;;;;;5030318;28;20419;-61
2022/03/05 07:50:24;;;;;;;9.52;6.82;;;;;;;;;;5028554;28;20617;-60
2022/03/05 07:52:50;;;;;;;11.50;7.97;;;;;;;;;;5029130;28;20496;-61
2022/03/05 07:55:16;;;;;;;10.15;7.20;;;;;;;;;;5044000;28;20128;-62
2022/03/05 07:57:42;;;;;;;9.73;6.35;;;;;;;;;;5029711;28;20514;-62
2022/03/05 08:00:09;;;;;;;7.90;5.35;;;;;;;;;;5035054;28;20484;-62
2022/03/05 08:02:35;;;;;;;8.65;6.10;;;;;;;;;;5010604;28;20414;-61
2022/03/05 08:05:01;;;;;;;8.43;5.75;;;;;;;;;;5029631;28;20037;-61
2022/03/05 08:07:27;;;;;;;10.40;6.97;;;;;;;;;;5027083;28;20292;-61
2022/03/05 08:09:53;;;;;;;8.40;6.18;;;;;;;;;;5027280;28;20565;-60
2022/03/05 08:12:19;;;;;;;10.43;7.07;;;;;;;;;;5025893;28;20520;-60
2022/03/05 08:14:45;;;;;;;11.00;7.68;;;;;;;;;;5009561;28;20052;-62
2022/03/05 08:17:12;;;;;;;9.88;6.75;;;;;;;;;;5028710;28;20398;-62
2022/03/05 08:19:38;;;;;;;10.52;6.55;;;;;;;;;;5027915;28;20037;-62
2022/03/05 08:22:04;;;;;;;10.00;5.38;;;;;;;;;;5011411;28;20438;-61
2022/03/05 08:24:30;;;;;;;7.93;5.13;;;;;;;;;;5031014;28;20051;-61
2022/03/05 08:26:56;;;;;;;10.15;6.32;;;;;;;;;;5029616;28;20087;-62
2022/03/05 08:29:22;;;;;;;9.23;5.55;;;;;;;;;;5027388;28;20042;-62
2022/03/05 08:31:49;;;;;;;8.15;6.13;;;;;;;;;;5029145;28;20037;-61
2022/03/05 08:34:15;;;;;;;9.68;6.43;;;;;;;;;;5028923;28;20057;-62
2022/03/05 08:36:41;;;;;;;6.97;4.97;;;;;;;;;;5028383;28;20068;-61
2022/03/05 08:39:07;;;;;;;8.30;5.45;;;;;;;;;;5026455;28;20050;-61
2022/03/05 08:41:33;;;;;;;6.57;5.07;;;;;;;;;;5027204;28;20046;-61
2022/03/05 08:43:59;;;;;;;7.78;6.15;;;;;;;;;;5055479;28;20408;-61
2022/03/05 08:46:26;;;;;;;9.45;6.90;;;;;;;;;;5023450;28;20040;-61
2022/03/05 08:48:52;;;;;;;7.95;5.10;;;;;;;;;;5027066;28;20041;-62
2022/03/05 08:51:19;;;;;;;10.13;7.43;;;;;;;;;;5027223;28;20064;-63
2022/03/05 08:53:45;;;;;;;7.88;6.05;;;;;;;;;;5027307;28;20388;-61
2022/03/05 08:56:11;;;;;;;7.95;6.35;;;;;;;;;;5037988;28;20053;-61
2022/03/05 08:58:37;;;;;;;8.40;6.95;;;;;;;;;;5027422;28;20045;-61
2022/03/05 09:01:03;;;;;;;8.70;5.85;;;;;;;;;;5028888;28;20520;-62
2022/03/05 09:03:29;;;;;;;10.50;6.90;;;;;;;;;;5023728;28;20045;-61
2022/03/05 09:05:56;;;;;;;7.78;5.93;;;;;;;;;;5026931;28;20037;-61
2022/03/05 09:08:22;;;;;;;8.20;6.65;;;;;;;;;;5026964;28;20414;-60
2022/03/05 09:10:48;;;;;;;10.05;7.47;;;;;;;;;;5028688;28;20091;-62
2022/03/05 09:13:14;;;;;;;8.48;6.78;;;;;;;;;;5035810;28;20050;-61
2022/03/05 09:15:40;;;;;;;8.77;6.88;;;;;;;;;;5027040;28;20041;-61
2022/03/05 09:18:06;;;;;;;8.88;6.75;;;;;;;;;;5028470;28;20077;-62
2022/03/05 09:20:33;;;;;;;8.48;6.00;;;;;;;;;;5028853;28;20100;-61
2022/03/05 09:23:01;;;;;;;8.60;7.20;;;;;;;;;;5026520;28;20112;-61
2022/03/05 09:25:27;;;;;;;7.95;7.15;;;;;;;;;;5007708;28;20437;-61
2022/03/05 09:27:53;;;;;;;8.52;7.57;;;;;;;;;;5027585;28;20396;-61
2022/03/05 09:30:20;;;;;;;11.20;7.75;;;;;;;;;;5026830;28;20045;-62
2022/03/05 09:32:46;;;;;;;8.57;6.70;;;;;;;;;;5028655;28;20554;-62
2022/03/05 09:35:12;;;;;;;7.35;5.95;;;;;;;;;;5028630;28;20586;-61
2022/03/05 09:37:39;;;;;;;8.40;7.60;;;;;;;;;;5028792;28;20037;-62
2022/03/05 09:40:05;;;;;;;7.32;6.55;;;;;;;;;;5026265;28;20037;-63
2022/03/05 09:42:32;;;;;;;8.40;6.88;;;;;;;;;;5028254;28;20049;-62
2022/03/05 09:44:58;;;;;;;7.18;6.25;;;;;;;;;;5026859;28;20301;-63
2022/03/05 09:47:26;;;;;;;8.48;6.90;;;;;;;;;;5027242;28;20380;-61
2022/03/05 09:49:54;;;;;;;9.80;7.50;;;;;;;;;;5008680;28;20053;-61
2022/03/05 09:52:20;;;;;;;7.30;6.60;;;;;;;;;;5028891;28;20136;-61
2022/03/05 09:54:46;;;;;;;9.48;7.72;;;;;;;;;;5026325;28;20041;-61
2022/03/05 09:57:13;;;;;;;7.72;6.90;;;;;;;;;;5027680;28;20046;-62
2022/03/05 09:59:40;;;;;;;9.98;7.60;;;;;;;;;;5027662;28;20044;-62
2022/03/05 10:02:07;;;;;;;7.40;6.60;;;;;;;;;;5028900;28;20045;-62
2022/03/05 10:04:33;;;;;;;7.43;6.20;;;;;;;;;;5029123;28;20093;-61
2022/03/05 10:07:16;;;;;;;7.50;5.95;;;;;;;;;;5028051;28;20049;-62
2022/03/05 10:09:46;;;;;;;7.63;6.82;;;;;;;;;;5050419;28;20034;-62
2022/03/05 10:12:26;;;;;;;9.00;7.18;;;;;;;;;;5027681;28;20044;-61
2022/03/05 10:15:09;;;;;;;7.45;6.75;;;;;;;;;;5043458;28;20033;-67
2022/03/05 10:17:47;;;;;;;9.77;7.32;;;;;;;;;;5050664;28;20053;-62
2022/03/05 10:20:13;;;;;;;7.90;7.10;;;;;;;;;;5047287;28;20128;-64
2022/03/05 10:22:39;;;;;;;9.90;7.60;;;;;;;;;;5027452;28;20040;-62
2022/03/05 10:25:06;;;;;;;9.90;7.00;;;;;;;;;;5026148;28;20057;-62
2022/03/05 10:27:32;;;;;;;7.50;6.80;;;;;;;;;;5025504;28;20041;-62
2022/03/05 10:29:58;;;;;;;8.88;6.75;;;;;;;;;;5009010;28;20054;-61
2022/03/05 10:32:25;;;;;;;8.65;7.15;;;;;;;;;;5027210;28;20069;-62
2022/03/05 10:34:51;;;;;;;8.30;7.30;;;;;;;;;;5032206;28;20633;-64
2022/03/05 10:37:18;;;;;;;8.27;6.80;;;;;;;;;;5062715;28;20091;-62
2022/03/05 10:39:44;;;;;;;8.15;6.35;;;;;;;;;;5031354;28;20038;-62
2022/03/05 10:42:17;;;;;;;7.68;6.78;;;;;;;;;;5029101;28;20049;-62
2022/03/05 10:44:43;;;;;;;7.50;6.70;;;;;;;;;;5058563;28;20123;-62
2022/03/05 10:47:09;;;;;;;7.10;6.35;;;;;;;;;;5029578;28;20044;-62
2022/03/05 10:49:37;;;;;;;8.02;7.10;;;;;;;;;;5046504;28;20541;-62
2022/03/05 10:52:03;;;;;;;6.57;5.93;;;;;;;;;;5029540;28;20038;-61
2022/03/05 10:54:31;;;;;;;8.13;6.10;;;;;;;;;;5031454;28;20033;-63
2022/03/05 10:56:57;;;;;;;7.10;6.15;;;;;;;;;;5030719;28;20045;-61
2022/03/05 10:59:23;;;;;;;7.60;6.78;;;;;;;;;;5012771;28;20045;-62
2022/03/05 11:01:50;;;;;;;7.18;6.45;;;;;;;;;;5029033;28;20041;-62
2022/03/05 11:04:16;;;;;;;8.95;7.20;;;;;;;;;;5029653;28;20744;-62
2022/03/05 11:06:43;;;;;;;6.97;6.10;;;;;;;;;;5030106;28;20041;-63
2022/03/05 11:09:10;;;;;;;6.97;6.28;;;;;;;;;;5030834;28;20482;-62
2022/03/05 11:11:37;;;;;;;6.22;5.45;;;;;;;;;;5027455;28;20042;-62
2022/03/05 11:14:04;;;;;;;9.55;6.05;;;;;;;;;;5030298;28;20385;-63
2022/03/05 11:16:31;;;;;;;5.75;4.97;;;;;;;;;;5032520;28;20056;-61
2022/03/05 11:18:57;;;;;;;6.88;6.25;;;;;;;;;;5029103;28;20033;-62
2022/03/05 11:21:25;;;;;;;5.35;4.72;;;;;;;;;;5030969;28;20324;-62
2022/03/05 11:23:51;;;;;;;7.18;6.35;;;;;;;;;;5028526;28;20045;-62
2022/03/05 11:26:18;;;;;;;8.30;6.50;;;;;;;;;;5029143;28;20041;-62
2022/03/05 11:28:48;;;;;;;8.02;6.95;;;;;;;;;;5028624;28;20049;-63
2022/03/05 11:31:18;;;;;;;8.13;7.28;;;;;;;;;;5029090;28;20056;-61
2022/03/05 11:33:45;;;;;;;9.80;6.80;;;;;;;;;;5030096;28;20491;-61
2022/03/05 11:36:38;;;;;;;7.82;6.40;;;;;;;;;;5047669;28;20078;-62
2022/03/05 11:39:07;;;;;;;8.18;6.60;;;;;;;;;;5036901;28;20056;-63
2022/03/05 11:41:34;;;;;;;9.68;7.15;;;;;;;;;;5028707;28;20045;-62
2022/03/05 11:44:13;;;;;;;8.35;6.68;;;;;;;;;;5028798;28;21383;-62
2022/03/05 11:46:39;;;;;;;8.30;5.72;;;;;;;;;;5028959;28;20076;-62
2022/03/05 11:49:12;;;;;;;9.15;6.97;;;;;;;;;;5028878;28;20128;-62
2022/03/05 11:52:00;;;;;;;7.72;6.93;;;;;;;;;;5030057;28;20132;-62
2022/03/05 11:54:26;;;;;;;8.43;6.55;;;;;;;;;;5029370;28;20053;-64
2022/03/05 11:57:08;;;;;;;7.50;6.70;;;;;;;;;;5010016;28;20363;-61
2022/03/05 11:59:39;;;;;;;7.53;6.50;;;;;;;;;;5028214;28;20124;-63
2022/03/05 12:02:05;;;;;;;8.43;6.60;;;;;;;;;;5029666;28;20118;-63
2022/03/05 12:04:32;;;;;;;8.25;7.43;;;;;;;;;;5033928;28;20042;-62
2022/03/05 12:07:03;;;;;;;10.93;8.23;;;;;;;;;;5030809;28;20045;-62
2022/03/05 12:09:45;;;;;;;9.60;8.50;;;;;;;;;;5011335;28;20038;-62
2022/03/05 12:12:13;;;;;;;7.57;6.45;;;;;;;;;;5020604;28;20410;-61
2022/03/05 12:14:58;;;;;;;9.52;7.95;;;;;;;;;;5030964;28;20037;-62
2022/03/05 12:17:25;;;;;;;8.73;7.70;;;;;;;;;;5031427;28;20502;-61
2022/03/05 12:19:51;;;;;;;9.35;8.23;;;;;;;;;;5030078;28;20045;-62
2022/03/05 12:22:17;;;;;;;9.27;7.57;;;;;;;;;;5028539;28;20041;-61
2022/03/05 12:24:43;;;;;;;10.05;8.10;;;;;;;;;;5030086;28;20045;-62
2022/03/05 12:27:16;;;;;;;8.80;7.28;;;;;;;;;;5029466;28;20179;-61
2022/03/05 12:29:46;;;;;;;9.05;7.40;;;;;;;;;;5038415;28;20391;-63
2022/03/05 12:32:14;;;;;;;9.82;7.45;;;;;;;;;;5028495;28;20038;-61
2022/03/05 12:34:40;;;;;;;10.90;7.93;;;;;;;;;;5029057;28;20098;-61
2022/03/05 12:37:07;;;;;;;9.63;7.32;;;;;;;;;;5027798;28;20419;-60
2022/03/05 12:39:34;;;;;;;8.55;7.45;;;;;;;;;;5030272;28;20037;-62
2022/03/05 12:42:00;;;;;;;9.13;7.25;;;;;;;;;;5029006;28;20415;-60
2022/03/05 12:44:33;;;;;;;9.23;7.35;;;;;;;;;;5028592;28;20057;-60
2022/03/05 12:46:59;;;;;;;9.68;7.88;;;;;;;;;;5037128;28;20052;-61
2022/03/05 12:49:25;;;;;;;11.63;9.02;;;;;;;;;;5028237;28;20040;-62
2022/03/05 12:51:51;;;;;;;10.27;8.50;;;;;;;;;;5028516;28;20102;-62
2022/03/05 12:54:17;;;;;;;8.90;7.45;;;;;;;;;;5027253;28;20049;-62
2022/03/05 12:56:43;;;;;;;14.10;8.77;;;;;;;;;;5027260;28;20064;-63
2022/03/05 12:59:09;;;;;;;9.57;8.38;;;;;;;;;;5028018;28;20046;-61
2022/03/05 13:01:35;;;;;;;9.55;7.90;;;;;;;;;;5055825;28;20073;-62
2022/03/05 13:04:01;;;;;;;8.85;7.82;;;;;;;;;;5026685;28;20056;-62
2022/03/05 13:06:28;;;;;;;10.18;7.78;;;;;;;;;;5027783;28;20097;-61
2022/03/05 13:08:54;;;;;;;11.55;8.32;;;;;;;;;;5027292;28;20048;-62
2022/03/05 13:11:22;;;;;;;10.15;8.15;;;;;;;;;;5029397;28;20138;-62
2022/03/05 13:13:53;;;;;;;10.35;8.52;;;;;;;;;;5026246;28;20049;-62
2022/03/05 13:16:27;;;;;;;10.00;8.75;;;;;;;;;;5042977;28;20044;-62
2022/03/05 13:19:01;;;;;;;8.90;7.82;;;;;;;;;;5028358;28;20330;-63
2022/03/05 13:21:27;;;;;;;9.35;7.95;;;;;;;;;;5027024;28;20506;-62
2022/03/05 13:23:53;;;;;;;9.82;8.57;;;;;;;;;;5026721;28;20049;-63
2022/03/05 13:26:20;;;;;;;11.82;8.35;;;;;;;;;;5028071;28;20388;-61
2022/03/05 13:28:46;;;;;;;9.60;8.52;;;;;;;;;;5026807;28;20056;-62
2022/03/05 13:31:12;;;;;;;9.43;7.80;;;;;;;;;;5027872;28;20037;-62
2022/03/05 13:33:38;;;;;;;9.52;7.18;;;;;;;;;;5028145;28;20084;-63
2022/03/05 13:36:15;;;;;;;9.73;8.18;;;;;;;;;;5036594;28;20049;-63
2022/03/05 13:38:42;;;;;;;10.15;7.90;;;;;;;;;;5023817;28;20048;-63
2022/03/05 13:41:12;;;;;;;9.68;7.55;;;;;;;;;;5028465;28;20487;-62
2022/03/05 13:43:39;;;;;;;9.63;7.75;;;;;;;;;;5027292;28;20152;-62
2022/03/05 13:46:06;;;;;;;14.30;8.90;;;;;;;;;;5030081;28;20470;-62
2022/03/05 13:48:32;;;;;;;10.65;8.20;;;;;;;;;;5028162;28;20072;-62
2022/03/05 13:51:11;;;;;;;10.88;7.32;;;;;;;;;;5043336;28;20033;-62
2022/03/05 13:53:45;;;;;;;11.82;8.98;;;;;;;;;;5052165;28;20072;-62
2022/03/05 13:56:12;;;;;;;11.93;9.15;;;;;;;;;;5026453;28;20049;-62
2022/03/05 13:58:38;;;;;;;10.00;7.50;;;;;;;;;;5052191;28;20034;-63
2022/03/05 14:01:25;;;;;;;10.40;8.63;;;;;;;;;;5026879;28;20053;-62
2022/03/05 14:04:08;;;;;;;9.98;7.20;;;;;;;;;;5018775;28;20527;-63
2022/03/05 14:06:57;;;;;;;10.77;8.88;;;;;;;;;;5024134;28;20055;-63
2022/03/05 14:09:27;;;;;;;11.10;8.85;;;;;;;;;;5026600;28;20438;-62
2022/03/05 14:12:10;;;;;;;9.95;8.02;;;;;;;;;;5026812;28;20045;-62
2022/03/05 14:14:39;;;;;;;11.20;8.57;;;;;;;;;;5026942;28;20526;-62
2022/03/05 14:17:06;;;;;;;10.63;7.88;;;;;;;;;;5027360;28;20400;-62
2022/03/05 14:19:33;;;;;;;11.30;8.20;;;;;;;;;;5026240;28;20048;-63
2022/03/05 14:22:05;;;;;;;12.38;9.20;;;;;;;;;;5027881;28;20045;-62
2022/03/05 14:24:31;;;;;;;12.35;9.13;;;;;;;;;;5053447;28;20072;-63
2022/03/05 14:26:57;;;;;;;11.93;9.25;;;;;;;;;;5027720;28;20111;-61
2022/03/05 14:29:23;;;;;;;11.27;9.13;;;;;;;;;;5026520;28;20096;-63
2022/03/05 14:31:49;;;;;;;9.57;8.00;;;;;;;;;;5026197;28;20113;-62
2022/03/05 14:34:21;;;;;;;9.95;8.57;;;;;;;;;;5027765;28;20124;-62
2022/03/05 14:36:48;;;;;;;11.95;9.45;;;;;;;;;;5026439;28;20037;-63
2022/03/05 14:39:14;;;;;;;10.07;7.70;;;;;;;;;;5027572;28;20033;-62
2022/03/05 14:41:40;;;;;;;12.32;8.50;;;;;;;;;;5027354;28;20060;-63
2022/03/05 14:44:06;;;;;;;10.85;8.43;;;;;;;;;;5027373;28;20056;-63